Time;durP1;ratioP1;P1;durP2;ratioP2;P2;SDS_P1;SDS_P2;PMS_P1;PMS_P2;Temp;Humidity;BMP_temperature;BMP_pressure;BME280_temperature;BME280_humidity;BME280_pressure;Samples;Min_cycle;Max_cycle;Signal;HPM_P1;HPM_P2
2021/09/11 00:00:28;;;;;;;9.47;8.67;;;17.30;99.90;;;;;;5041286;28;20254;-79
2021/09/11 00:02:54;;;;;;;9.43;8.73;;;17.30;99.90;;;;;;5040544;28;20222;-79
2021/09/11 00:05:21;;;;;;;9.83;8.97;;;17.40;99.90;;;;;;5040531;28;20195;-79
2021/09/11 00:07:47;;;;;;;9.33;8.63;;;17.40;99.90;;;;;;5039382;28;20175;-80
2021/09/11 00:10:13;;;;;;;9.63;8.83;;;17.40;99.90;;;;;;5040371;28;20181;-79
2021/09/11 00:12:39;;;;;;;9.17;8.47;;;17.50;99.90;;;;;;5040720;28;20194;-79
2021/09/11 00:15:07;;;;;;;9.70;8.90;;;17.40;99.90;;;;;;5040059;28;20670;-79
2021/09/11 00:17:33;;;;;;;10.47;9.63;;;17.40;99.90;;;;;;5039993;28;20665;-78
2021/09/11 00:19:59;;;;;;;10.13;9.33;;;17.40;99.90;;;;;;5041127;28;20205;-79
2021/09/11 00:22:25;;;;;;;11.00;10.10;;;17.50;99.90;;;;;;5039223;28;20201;-78
2021/09/11 00:24:50;;;;;;;11.03;10.13;;;17.40;99.90;;;;;;5040768;28;20178;-79
2021/09/11 00:27:16;;;;;;;10.60;9.60;;;17.50;99.90;;;;;;5039346;28;20644;-79
2021/09/11 00:29:42;;;;;;;11.17;10.27;;;17.40;99.90;;;;;;5039905;28;20548;-78
2021/09/11 00:32:08;;;;;;;10.93;9.93;;;17.30;99.90;;;;;;5040390;28;20225;-79
2021/09/11 00:34:34;;;;;;;10.10;9.30;;;17.40;99.90;;;;;;5039550;28;20182;-79
2021/09/11 00:37:00;;;;;;;11.00;10.10;;;17.40;99.90;;;;;;5039246;28;20197;-79
2021/09/11 00:39:26;;;;;;;10.70;9.90;;;17.30;99.90;;;;;;5040275;28;20228;-79
2021/09/11 00:41:52;;;;;;;10.80;10.00;;;17.20;99.90;;;;;;5038106;28;20202;-80
2021/09/11 00:44:18;;;;;;;10.13;9.33;;;17.20;99.90;;;;;;5048155;28;20170;-79
2021/09/11 00:46:44;;;;;;;11.27;10.23;;;17.20;99.90;;;;;;5040176;28;20210;-79
2021/09/11 00:49:10;;;;;;;10.87;9.97;;;17.10;99.90;;;;;;5040221;28;20166;-78
2021/09/11 00:51:36;;;;;;;11.23;10.13;;;17.20;99.90;;;;;;5040293;28;20571;-79
2021/09/11 00:54:03;;;;;;;11.13;10.23;;;17.10;99.90;;;;;;5040694;28;20171;-79
2021/09/11 00:56:31;;;;;;;11.17;10.37;;;17.10;99.90;;;;;;5039568;28;20535;-79
2021/09/11 00:58:58;;;;;;;10.97;10.17;;;17.10;99.90;;;;;;5038589;28;20181;-79
2021/09/11 01:01:24;;;;;;;10.60;9.57;;;17.10;99.90;;;;;;5039204;28;20266;-79
2021/09/11 01:03:49;;;;;;;11.37;10.43;;;17.20;99.90;;;;;;5038773;28;20170;-79
2021/09/11 01:06:15;;;;;;;11.17;10.20;;;17.10;99.90;;;;;;5039968;28;20186;-79
2021/09/11 01:08:42;;;;;;;11.40;10.50;;;17.10;99.90;;;;;;5038107;28;20196;-79
2021/09/11 01:11:08;;;;;;;10.50;9.63;;;17.10;99.90;;;;;;5039724;28;20170;-79
2021/09/11 01:13:34;;;;;;;11.03;10.13;;;17.20;99.90;;;;;;5040466;28;20169;-79
2021/09/11 01:16:00;;;;;;;10.60;9.73;;;17.10;99.90;;;;;;5038469;28;20205;-79
2021/09/11 01:18:27;;;;;;;10.30;9.43;;;17.20;99.90;;;;;;5039570;28;20224;-79
2021/09/11 01:20:53;;;;;;;10.27;9.40;;;17.20;99.90;;;;;;5036756;28;20189;-79
2021/09/11 01:23:20;;;;;;;10.00;9.20;;;17.30;99.90;;;;;;5038547;28;20177;-79
2021/09/11 01:25:46;;;;;;;9.30;8.60;;;17.30;99.90;;;;;;5037705;28;20201;-79
2021/09/11 01:28:12;;;;;;;9.00;8.30;;;17.30;99.90;;;;;;5038070;28;20696;-79
2021/09/11 01:30:38;;;;;;;9.20;8.50;;;17.30;99.90;;;;;;5033623;28;20244;-78
2021/09/11 01:33:04;;;;;;;7.70;7.10;;;17.30;99.90;;;;;;5034742;28;20617;-78
2021/09/11 01:35:29;;;;;;;8.20;7.60;;;17.20;99.90;;;;;;5032603;28;20190;-78
2021/09/11 01:37:55;;;;;;;8.53;7.80;;;17.10;99.90;;;;;;5032711;28;20174;-79
2021/09/11 01:40:22;;;;;;;9.17;8.13;;;17.20;99.90;;;;;;5032579;28;20170;-80
2021/09/11 01:42:48;;;;;;;8.63;8.03;;;17.20;99.90;;;;;;5038466;28;20186;-79
2021/09/11 01:45:16;;;;;;;10.90;8.30;;;17.20;99.90;;;;;;5038336;28;20247;-78
2021/09/11 01:47:43;;;;;;;8.93;8.13;;;17.20;99.90;;;;;;5036302;28;20223;-78
2021/09/11 01:50:10;;;;;;;9.13;8.40;;;17.20;99.90;;;;;;5049465;28;20265;-79
2021/09/11 01:52:37;;;;;;;8.60;7.90;;;17.30;99.90;;;;;;5050074;28;20193;-78
2021/09/11 01:55:07;;;;;;;8.93;8.20;;;17.30;99.90;;;;;;5051996;28;20174;-79
2021/09/11 01:57:34;;;;;;;8.23;7.63;;;17.20;99.90;;;;;;5051434;28;20170;-79
2021/09/11 01:59:59;;;;;;;10.10;9.20;;;17.30;99.90;;;;;;5044649;28;20208;-79
2021/09/11 02:02:25;;;;;;;9.73;8.97;;;17.20;99.90;;;;;;5032043;28;20237;-79
2021/09/11 02:04:51;;;;;;;9.40;8.60;;;17.10;99.90;;;;;;5033403;28;20252;-79
2021/09/11 02:07:16;;;;;;;9.27;8.67;;;17.10;99.90;;;;;;5032462;28;20253;-78
2021/09/11 02:09:42;;;;;;;9.33;8.53;;;17.00;99.90;;;;;;5032224;28;20163;-78
2021/09/11 02:12:08;;;;;;;9.60;8.90;;;17.00;99.90;;;;;;5034901;28;20233;-79
2021/09/11 02:14:33;;;;;;;10.07;9.07;;;17.20;99.90;;;;;;5031767;28;20256;-79
2021/09/11 02:17:01;;;;;;;9.73;9.03;;;17.20;99.90;;;;;;5032359;28;20166;-79
2021/09/11 02:19:27;;;;;;;9.03;8.37;;;17.30;99.90;;;;;;5017301;28;20258;-79
2021/09/11 02:21:52;;;;;;;9.83;9.10;;;17.30;99.90;;;;;;5031981;28;20198;-79
2021/09/11 02:24:18;;;;;;;9.87;9.10;;;17.40;99.90;;;;;;5016492;28;20221;-79
2021/09/11 02:26:44;;;;;;;9.83;9.03;;;17.30;99.90;;;;;;5032471;28;20212;-79
2021/09/11 02:29:09;;;;;;;10.10;9.37;;;17.20;99.90;;;;;;5031870;28;20182;-79
2021/09/11 02:31:35;;;;;;;9.77;9.03;;;17.20;99.90;;;;;;5033951;28;20645;-79
2021/09/11 02:34:01;;;;;;;10.17;9.33;;;17.30;99.90;;;;;;5034062;28;20170;-78
2021/09/11 02:36:26;;;;;;;10.10;9.30;;;17.30;99.90;;;;;;5017794;28;20186;-79
2021/09/11 02:38:52;;;;;;;9.83;9.03;;;17.30;99.90;;;;;;5031951;28;20587;-79
2021/09/11 02:41:18;;;;;;;10.90;9.90;;;17.30;99.90;;;;;;5016642;28;20202;-79
2021/09/11 02:43:43;;;;;;;10.57;9.73;;;17.20;99.90;;;;;;5033236;28;20179;-79
2021/09/11 02:46:10;;;;;;;10.30;9.50;;;17.30;99.90;;;;;;5032504;28;20261;-78
2021/09/11 02:48:36;;;;;;;11.03;10.03;;;17.20;99.90;;;;;;5031368;28;20172;-79
2021/09/11 02:51:02;;;;;;;10.70;9.80;;;17.10;99.90;;;;;;5032243;28;20687;-79
2021/09/11 02:53:28;;;;;;;13.00;10.63;;;17.00;99.90;;;;;;5029915;28;20198;-78
2021/09/11 02:55:53;;;;;;;10.80;9.97;;;17.00;99.90;;;;;;5033563;28;20174;-79
2021/09/11 02:58:22;;;;;;;10.57;9.70;;;17.10;99.90;;;;;;5034157;28;20182;-79
2021/09/11 03:00:49;;;;;;;11.20;10.30;;;17.10;99.90;;;;;;5034789;28;20257;-78
2021/09/11 03:03:15;;;;;;;11.53;10.63;;;17.20;99.90;;;;;;5033067;28;20198;-79
2021/09/11 03:05:41;;;;;;;11.30;10.20;;;17.20;99.90;;;;;;5034043;28;20727;-78
2021/09/11 03:08:07;;;;;;;11.20;10.40;;;17.30;99.90;;;;;;5034215;28;20182;-78
2021/09/11 03:10:33;;;;;;;10.83;9.97;;;17.30;99.90;;;;;;5034049;28;20170;-79
2021/09/11 03:12:58;;;;;;;11.53;10.53;;;17.30;99.90;;;;;;5034098;28;20204;-78
2021/09/11 03:15:24;;;;;;;11.37;9.77;;;17.20;99.90;;;;;;5032710;28;20274;-78
2021/09/11 03:17:50;;;;;;;10.10;9.27;;;17.20;99.90;;;;;;5033395;28;20189;-78
2021/09/11 03:20:15;;;;;;;9.57;8.87;;;17.20;99.90;;;;;;5034381;28;20182;-79
2021/09/11 03:22:41;;;;;;;10.17;9.47;;;17.20;99.90;;;;;;5033263;28;20190;-79
2021/09/11 03:25:07;;;;;;;11.83;10.83;;;17.20;99.90;;;;;;5033455;28;20182;-78
2021/09/11 03:27:33;;;;;;;10.43;9.63;;;17.20;99.90;;;;;;5032457;28;20261;-79
2021/09/11 03:29:58;;;;;;;11.13;10.23;;;17.20;99.90;;;;;;5032521;28;20213;-78
2021/09/11 03:32:24;;;;;;;10.90;10.00;;;17.20;99.90;;;;;;5033354;28;20206;-78
2021/09/11 03:34:49;;;;;;;10.10;9.30;;;17.20;99.90;;;;;;5034113;28;20175;-78
2021/09/11 03:37:16;;;;;;;11.67;10.57;;;17.20;99.90;;;;;;5033636;28;20166;-79
2021/09/11 03:39:41;;;;;;;11.03;10.20;;;17.20;99.90;;;;;;5033556;28;20170;-78
2021/09/11 03:42:07;;;;;;;10.70;9.80;;;17.20;99.90;;;;;;5034254;28;20688;-79
2021/09/11 03:44:33;;;;;;;12.37;11.37;;;17.10;99.90;;;;;;5036756;28;20183;-77
2021/09/11 03:46:58;;;;;;;12.03;11.03;;;17.10;99.90;;;;;;5039767;28;20197;-79
2021/09/11 03:49:24;;;;;;;12.57;11.50;;;17.00;99.90;;;;;;5043155;28;20192;-79
2021/09/11 03:51:49;;;;;;;11.63;10.70;;;17.00;99.90;;;;;;5035960;28;20197;-78
2021/09/11 03:54:15;;;;;;;11.37;10.47;;;17.10;99.90;;;;;;5036638;28;20193;-79
2021/09/11 03:56:41;;;;;;;12.03;11.03;;;17.10;99.90;;;;;;5037059;28;20179;-79
2021/09/11 03:59:07;;;;;;;12.57;11.47;;;17.10;99.90;;;;;;5036378;28;20220;-79
2021/09/11 04:01:32;;;;;;;12.50;11.33;;;17.20;99.90;;;;;;5031224;28;20203;-79
2021/09/11 04:03:58;;;;;;;11.53;10.53;;;17.20;99.90;;;;;;5036704;28;20182;-79
2021/09/11 04:06:24;;;;;;;12.10;11.00;;;17.10;99.90;;;;;;5038506;28;20663;-78
2021/09/11 04:08:49;;;;;;;11.67;10.67;;;17.10;99.90;;;;;;5037925;28;20170;-79
2021/09/11 04:11:15;;;;;;;10.67;9.87;;;17.20;99.90;;;;;;5039359;28;20191;-77
2021/09/11 04:13:41;;;;;;;10.70;9.60;;;17.20;99.90;;;;;;5040810;28;20189;-78
2021/09/11 04:16:06;;;;;;;11.23;10.33;;;17.10;99.90;;;;;;5039862;28;20186;-79
2021/09/11 04:18:32;;;;;;;10.80;9.90;;;17.10;99.90;;;;;;5040214;28;20181;-79
2021/09/11 04:20:58;;;;;;;10.93;10.00;;;17.00;99.90;;;;;;5039914;28;20174;-79
2021/09/11 04:23:24;;;;;;;11.67;10.60;;;17.00;99.90;;;;;;5039304;28;20186;-79
2021/09/11 04:25:49;;;;;;;10.90;10.10;;;16.90;99.90;;;;;;5049427;28;20340;-79
2021/09/11 04:28:15;;;;;;;11.83;10.73;;;16.90;99.90;;;;;;5047850;28;20582;-78
2021/09/11 04:30:40;;;;;;;11.87;10.87;;;17.00;99.90;;;;;;5049544;28;20177;-80
2021/09/11 04:33:06;;;;;;;11.13;10.23;;;16.90;99.90;;;;;;5035909;28;20680;-79
2021/09/11 04:35:33;;;;;;;11.40;10.23;;;16.90;99.90;;;;;;5044241;28;20186;-79
2021/09/11 04:37:59;;;;;;;11.40;10.27;;;16.90;99.90;;;;;;5039968;28;20177;-79
2021/09/11 04:40:25;;;;;;;11.73;10.80;;;16.90;99.90;;;;;;5046234;28;20208;-79
2021/09/11 04:42:50;;;;;;;11.57;10.77;;;16.80;99.90;;;;;;5047957;28;20225;-79
2021/09/11 04:45:16;;;;;;;10.63;9.83;;;16.80;99.90;;;;;;5028906;28;20179;-79
2021/09/11 04:47:42;;;;;;;12.43;11.40;;;16.90;99.90;;;;;;5051774;28;20170;-79
2021/09/11 04:50:08;;;;;;;12.53;11.53;;;16.90;99.90;;;;;;5050396;28;20169;-79
2021/09/11 04:52:34;;;;;;;11.60;10.67;;;16.90;99.90;;;;;;5054810;28;20205;-79
2021/09/11 04:55:00;;;;;;;13.10;12.00;;;16.90;99.90;;;;;;5046522;28;20177;-79
2021/09/11 04:57:25;;;;;;;12.70;11.50;;;17.00;99.90;;;;;;5052957;28;20173;-79
2021/09/11 04:59:51;;;;;;;13.60;12.43;;;17.00;99.90;;;;;;5047343;28;20182;-79
2021/09/11 05:02:17;;;;;;;12.47;11.37;;;16.90;99.90;;;;;;5054954;28;20269;-79
2021/09/11 05:04:43;;;;;;;12.83;11.63;;;16.90;99.90;;;;;;5052595;28;20166;-78
2021/09/11 05:07:08;;;;;;;13.47;12.27;;;16.90;99.90;;;;;;5047326;28;20695;-79
2021/09/11 05:09:34;;;;;;;11.27;10.47;;;17.00;99.90;;;;;;5052079;28;20196;-79
2021/09/11 05:12:03;;;;;;;12.80;11.43;;;16.90;99.90;;;;;;5051616;28;20201;-79
2021/09/11 05:14:30;;;;;;;16.40;14.77;;;16.90;99.90;;;;;;5052942;28;20162;-79
2021/09/11 05:16:57;;;;;;;15.33;13.90;;;16.80;99.90;;;;;;5051069;28;20174;-80
2021/09/11 05:19:22;;;;;;;16.20;14.70;;;16.80;99.90;;;;;;5050961;28;20178;-79
2021/09/11 05:21:48;;;;;;;15.77;14.17;;;16.90;99.90;;;;;;5048936;28;20201;-79
2021/09/11 05:24:16;;;;;;;15.30;14.00;;;16.90;99.90;;;;;;5039708;28;20205;-79
2021/09/11 05:26:42;;;;;;;15.27;13.97;;;16.90;99.90;;;;;;5039002;28;20195;-79
2021/09/11 05:29:08;;;;;;;15.67;14.23;;;16.90;99.90;;;;;;5038601;28;20162;-78
2021/09/11 05:31:33;;;;;;;15.23;13.83;;;16.90;99.90;;;;;;5036812;28;20212;-79
2021/09/11 05:33:59;;;;;;;15.63;14.10;;;17.00;99.90;;;;;;5009464;22;1131405;-85
2021/09/11 05:36:26;;;;;;;15.17;13.80;;;16.90;99.90;;;;;;5023901;28;20197;-84
2021/09/11 05:38:52;;;;;;;15.77;14.33;;;16.90;99.90;;;;;;5011431;28;20661;-85
2021/09/11 05:41:17;;;;;;;15.93;14.53;;;16.90;99.90;;;;;;5018376;28;20239;-85
2021/09/11 05:43:43;;;;;;;16.17;14.70;;;16.90;99.90;;;;;;5003281;28;20682;-84
2021/09/11 05:46:09;;;;;;;17.50;16.10;;;16.90;99.90;;;;;;5018564;28;20227;-85
2021/09/11 05:48:34;;;;;;;15.43;14.13;;;16.90;99.90;;;;;;5005421;28;20171;-85
2021/09/11 05:51:01;;;;;;;15.10;13.80;;;16.90;99.90;;;;;;5006267;28;20661;-84
2021/09/11 05:53:27;;;;;;;18.97;15.17;;;17.00;99.90;;;;;;5016568;28;20215;-84
2021/09/11 05:55:53;;;;;;;16.53;14.83;;;16.90;99.90;;;;;;5002961;28;20231;-84
2021/09/11 05:58:20;;;;;;;16.30;14.80;;;16.90;99.90;;;;;;5003781;28;20207;-84
2021/09/11 06:00:46;;;;;;;18.10;15.03;;;16.80;99.90;;;;;;5004233;28;20184;-84
2021/09/11 06:03:12;;;;;;;15.80;14.20;;;16.90;99.90;;;;;;5003374;28;20203;-84
2021/09/11 06:05:37;;;;;;;15.13;13.67;;;16.90;99.90;;;;;;5004010;28;20205;-84
2021/09/11 06:08:03;;;;;;;16.03;14.53;;;16.90;99.90;;;;;;5003508;28;20639;-84
2021/09/11 06:10:29;;;;;;;15.83;14.47;;;16.90;99.90;;;;;;5002946;28;20171;-84
2021/09/11 06:12:55;;;;;;;16.27;14.67;;;16.90;99.90;;;;;;5013756;28;20186;-84
2021/09/11 06:15:21;;;;;;;16.00;14.67;;;16.90;99.90;;;;;;5008579;28;20175;-84
2021/09/11 06:17:47;;;;;;;15.83;14.43;;;16.90;99.90;;;;;;5003040;28;20252;-84
2021/09/11 06:20:13;;;;;;;16.57;15.07;;;16.90;99.90;;;;;;5004882;28;20527;-84
2021/09/11 06:22:39;;;;;;;17.27;15.67;;;16.90;99.90;;;;;;5009511;28;20195;-84
2021/09/11 06:25:05;;;;;;;17.77;16.17;;;16.70;99.90;;;;;;5011098;28;20198;-84
2021/09/11 06:27:31;;;;;;;18.63;16.63;;;16.60;99.90;;;;;;5004130;28;20183;-84
2021/09/11 06:29:57;;;;;;;18.63;16.73;;;16.60;99.90;;;;;;5004371;28;20210;-84
2021/09/11 06:32:22;;;;;;;18.43;16.63;;;16.50;99.90;;;;;;5001818;28;20190;-84
2021/09/11 06:34:48;;;;;;;18.03;16.33;;;16.60;99.90;;;;;;4999596;28;20219;-84
2021/09/11 06:37:14;;;;;;;18.00;16.30;;;16.60;99.90;;;;;;5012549;28;20185;-84
2021/09/11 06:39:39;;;;;;;18.03;16.30;;;16.70;99.90;;;;;;5003647;28;20190;-84
2021/09/11 06:42:05;;;;;;;18.23;16.60;;;16.70;99.90;;;;;;5003702;28;20234;-84
2021/09/11 06:44:31;;;;;;;18.30;16.53;;;16.80;99.90;;;;;;5002954;28;20192;-84
2021/09/11 06:46:56;;;;;;;17.23;15.73;;;16.80;99.90;;;;;;5003612;28;20194;-84
2021/09/11 06:49:22;;;;;;;17.30;15.60;;;16.80;99.90;;;;;;4993726;28;20179;-84
2021/09/11 06:51:48;;;;;;;16.20;14.80;;;16.80;99.90;;;;;;5000644;28;20315;-84
2021/09/11 06:54:14;;;;;;;17.00;15.23;;;16.90;99.90;;;;;;4995237;28;20218;-84
2021/09/11 06:56:39;;;;;;;17.90;16.33;;;17.10;99.90;;;;;;4987400;28;20184;-84
2021/09/11 06:59:05;;;;;;;15.60;14.30;;;17.20;99.90;;;;;;5001775;28;20244;-83
2021/09/11 07:01:31;;;;;;;16.93;15.17;;;17.30;99.90;;;;;;5000440;28;20210;-84
2021/09/11 07:03:56;;;;;;;16.97;15.23;;;17.40;99.90;;;;;;4988578;28;20227;-84
2021/09/11 07:06:22;;;;;;;15.60;14.40;;;17.40;99.90;;;;;;4992552;28;20549;-84
2021/09/11 07:08:48;;;;;;;15.97;14.70;;;17.50;99.90;;;;;;4988366;28;20647;-84
2021/09/11 07:11:23;;;;;;;17.27;15.60;;;17.50;99.90;;;;;;4990619;28;20532;-82
2021/09/11 07:13:51;;;;;;;17.03;15.43;;;17.60;99.90;;;;;;4984970;28;20199;-83
2021/09/11 07:16:33;;;;;;;16.67;15.17;;;17.50;99.90;;;;;;4995199;28;20178;-84
2021/09/11 07:18:58;;;;;;;17.40;15.90;;;17.40;99.90;;;;;;5002765;28;20178;-83
2021/09/11 07:21:24;;;;;;;17.67;15.97;;;17.50;99.90;;;;;;5013475;28;20183;-83
2021/09/11 07:23:50;;;;;;;17.87;16.03;;;17.50;99.90;;;;;;5003800;28;20227;-83
2021/09/11 07:26:19;;;;;;;17.00;15.50;;;17.50;99.90;;;;;;4993825;28;20222;-84
2021/09/11 07:28:49;;;;;;;17.07;15.50;;;17.50;99.90;;;;;;5016193;28;20171;-84
2021/09/11 07:31:15;;;;;;;17.23;15.67;;;17.60;99.90;;;;;;4987920;28;20260;-84
2021/09/11 07:33:42;;;;;;;16.83;15.13;;;17.70;99.90;;;;;;5004066;28;20613;-84
2021/09/11 07:36:08;;;;;;;17.30;15.63;;;17.60;99.90;;;;;;5005369;28;20186;-84
2021/09/11 07:38:34;;;;;;;15.77;14.47;;;17.60;99.90;;;;;;5003821;28;20207;-84
2021/09/11 07:41:01;;;;;;;16.97;15.37;;;17.70;99.90;;;;;;5002441;28;20179;-84
2021/09/11 07:43:26;;;;;;;16.57;15.07;;;17.70;99.90;;;;;;5007056;28;20699;-85
2021/09/11 07:45:52;;;;;;;15.97;14.47;;;17.80;99.90;;;;;;5005492;28;20195;-84
2021/09/11 07:48:18;;;;;;;15.63;14.20;;;17.80;99.90;;;;;;5003175;28;20179;-84
2021/09/11 07:50:43;;;;;;;15.43;13.53;;;18.00;99.90;;;;;;5003610;28;20179;-84
2021/09/11 07:53:09;;;;;;;15.67;14.20;;;18.10;99.90;;;;;;5001443;28;20206;-83
2021/09/11 07:55:35;;;;;;;16.07;14.63;;;18.10;99.90;;;;;;4999847;28;20223;-83
2021/09/11 07:58:00;;;;;;;14.80;13.47;;;18.20;99.90;;;;;;5004174;28;20175;-83
2021/09/11 08:00:27;;;;;;;14.50;13.23;;;18.30;99.90;;;;;;5018075;28;20178;-85
2021/09/11 08:02:52;;;;;;;13.50;12.23;;;18.30;99.90;;;;;;5003258;28;20183;-83
2021/09/11 08:05:18;;;;;;;13.93;12.83;;;18.30;99.90;;;;;;5001124;28;20183;-83
2021/09/11 08:07:44;;;;;;;14.47;13.17;;;18.30;99.90;;;;;;5002309;28;20176;-84
2021/09/11 08:10:10;;;;;;;14.07;12.77;;;18.30;99.90;;;;;;5001785;28;20206;-84
2021/09/11 08:12:36;;;;;;;13.67;12.30;;;18.30;99.90;;;;;;5003811;28;20203;-84
2021/09/11 08:15:03;;;;;;;13.17;11.90;;;18.40;99.90;;;;;;4999829;28;20197;-84
2021/09/11 08:17:29;;;;;;;12.57;11.43;;;18.40;99.90;;;;;;4988446;28;20208;-83
2021/09/11 08:19:55;;;;;;;12.73;11.63;;;18.50;99.90;;;;;;4987372;28;20188;-84
2021/09/11 08:22:20;;;;;;;12.43;11.33;;;18.50;99.90;;;;;;4989329;28;20175;-84
2021/09/11 08:24:46;;;;;;;11.37;10.47;;;18.60;99.90;;;;;;4984802;28;20212;-85
2021/09/11 08:27:12;;;;;;;12.73;11.73;;;18.60;99.90;;;;;;4988119;28;20222;-85
2021/09/11 08:29:37;;;;;;;11.07;10.17;;;18.70;99.90;;;;;;5003906;28;20274;-84
2021/09/11 08:32:03;;;;;;;10.37;9.47;;;18.70;99.90;;;;;;5015505;28;20176;-84
2021/09/11 08:34:29;;;;;;;10.70;9.17;;;18.80;99.90;;;;;;5005553;28;20211;-84
2021/09/11 08:36:55;;;;;;;9.77;8.87;;;18.90;99.90;;;;;;5006946;28;20195;-84
2021/09/11 08:39:24;;;;;;;10.33;9.43;;;18.90;99.90;;;;;;5002092;28;20210;-85
2021/09/11 08:41:50;;;;;;;9.83;9.03;;;19.00;99.90;;;;;;5007840;28;20185;-84
2021/09/11 08:44:16;;;;;;;9.00;8.30;;;19.00;99.90;;;;;;4990741;28;20205;-84
2021/09/11 08:46:42;;;;;;;7.27;6.77;;;19.10;99.90;;;;;;4996166;28;20276;-84
2021/09/11 08:49:10;;;;;;;8.27;7.53;;;19.20;99.90;;;;;;5015700;28;20202;-84
2021/09/11 08:51:36;;;;;;;8.23;7.60;;;19.30;99.90;;;;;;5005666;28;20199;-84
2021/09/11 08:54:02;;;;;;;7.30;6.80;;;19.40;99.90;;;;;;5015191;28;20227;-85
2021/09/11 08:56:28;;;;;;;6.87;6.37;;;19.30;99.90;;;;;;5011133;28;20203;-85
2021/09/11 08:59:15;;;;;;;5.83;5.23;;;19.40;99.90;;;;;;5003392;28;20190;-80
2021/09/11 09:01:42;;;;;;;6.60;6.10;;;19.30;99.90;;;;;;4988447;28;20203;-84
2021/09/11 09:04:08;;;;;;;7.73;7.13;;;19.40;99.90;;;;;;4999823;28;20588;-84
2021/09/11 09:06:36;;;;;;;5.30;4.90;;;19.40;99.90;;;;;;5001063;28;20235;-84
2021/09/11 09:09:14;;;;;;;6.00;5.40;;;19.40;99.90;;;;;;5001110;28;20207;-84
2021/09/11 09:11:44;;;;;;;5.40;5.00;;;19.50;99.90;;;;;;5000144;28;20255;-84
2021/09/11 09:14:16;;;;;;;4.80;4.40;;;19.60;99.90;;;;;;5002109;28;20675;-84
2021/09/11 09:16:50;;;;;;;3.30;3.10;;;19.60;99.90;;;;;;5000946;28;20186;-84
2021/09/11 09:19:25;;;;;;;5.20;4.07;;;19.60;99.90;;;;;;5006478;28;20170;-84
2021/09/11 09:21:53;;;;;;;5.73;5.33;;;19.60;99.90;;;;;;5012175;28;20179;-85
2021/09/11 09:24:36;;;;;;;5.87;5.37;;;19.80;99.90;;;;;;5005474;28;20204;-84
2021/09/11 09:27:08;;;;;;;6.03;5.53;;;19.90;99.90;;;;;;5003313;28;20750;-85
2021/09/11 09:29:38;;;;;;;6.03;5.53;;;19.90;99.90;;;;;;5005994;28;20229;-85
2021/09/11 09:32:05;;;;;;;5.87;4.53;;;19.90;99.90;;;;;;5003275;28;20176;-84
2021/09/11 09:34:39;;;;;;;4.50;4.10;;;20.10;99.90;;;;;;5002622;28;20211;-84
2021/09/11 09:37:10;;;;;;;4.23;3.87;;;20.20;99.90;;;;;;5001601;28;20183;-85
2021/09/11 09:39:40;;;;;;;6.43;4.10;;;20.30;99.90;;;;;;5002776;28;20168;-85
2021/09/11 09:42:07;;;;;;;3.57;3.27;;;20.40;99.90;;;;;;5002132;28;20180;-85
2021/09/11 09:44:51;;;;;;;3.87;3.57;;;20.40;99.90;;;;;;5001244;28;20203;-85
2021/09/11 09:47:23;;;;;;;2.77;2.37;;;20.50;99.90;;;;;;5002385;28;20203;-84
2021/09/11 09:50:14;;;;;;;3.40;3.10;;;20.40;99.90;;;;;;5002752;28;20190;-84
2021/09/11 09:52:40;;;;;;;3.40;3.10;;;20.30;99.90;;;;;;5002478;28;20259;-85
2021/09/11 09:55:07;;;;;;;3.60;3.23;;;20.30;99.90;;;;;;5002280;28;20203;-85
2021/09/11 09:57:35;;;;;;;2.73;2.47;;;20.40;99.90;;;;;;5002241;28;20180;-85
2021/09/11 10:00:03;;;;;;;2.80;2.60;;;20.60;99.90;;;;;;5002371;28;20176;-85
2021/09/11 10:02:28;;;;;;;3.37;3.07;;;20.80;99.90;;;;;;5002139;28;20665;-86
2021/09/11 10:04:55;;;;;;;3.70;3.13;;;21.00;99.90;;;;;;5003540;28;20199;-85
2021/09/11 10:07:21;;;;;;;3.93;3.57;;;21.10;99.90;;;;;;5002472;28;20222;-86
2021/09/11 10:09:50;;;;;;;5.77;3.80;;;21.20;99.90;;;;;;5001996;28;20710;-86
2021/09/11 10:12:41;;;;;;;4.23;3.93;;;21.40;99.90;;;;;;5001641;28;20179;-86
2021/09/11 10:15:29;;;;;;;4.33;3.47;;;21.50;99.90;;;;;;5002893;28;20207;-86
2021/09/11 10:17:55;;;;;;;3.37;3.10;;;21.70;99.90;;;;;;5010344;28;20178;-85
2021/09/11 10:20:22;;;;;;;3.13;2.93;;;21.70;99.90;;;;;;5007368;28;20253;-86
2021/09/11 10:23:08;;;;;;;3.40;2.60;;;21.90;99.90;;;;;;5002515;28;20206;-86
2021/09/11 10:25:41;;;;;;;2.63;2.43;;;22.00;99.90;;;;;;5004630;28;20203;-85
2021/09/11 10:28:16;;;;;;;3.47;3.20;;;21.80;99.90;;;;;;5001815;28;20195;-86
2021/09/11 10:31:01;;;;;;;2.77;2.57;;;21.90;99.90;;;;;;5001930;28;20202;-85
2021/09/11 10:34:00;;;;;;;3.00;2.70;;;21.90;99.90;;;;;;5001550;28;20207;-86
2021/09/11 10:36:29;;;;;;;3.33;3.03;;;22.10;99.90;;;;;;4970410;28;20184;-86
2021/09/11 10:39:07;;;;;;;3.43;2.60;;;22.10;99.90;;;;;;5001577;28;20203;-86
2021/09/11 10:41:32;;;;;;;3.10;2.80;;;22.20;99.90;;;;;;5001903;28;20203;-86
2021/09/11 10:44:05;;;;;;;3.07;2.77;;;22.40;99.90;;;;;;5001382;28;20206;-86
2021/09/11 10:46:51;;;;;;;3.20;3.00;;;22.50;99.90;;;;;;5000323;28;20736;-86
2021/09/11 10:49:28;;;;;;;4.37;3.30;;;22.60;99.90;;;;;;5000835;28;20263;-85
2021/09/11 10:52:04;;;;;;;3.27;2.20;;;22.70;99.90;;;;;;5000433;28;20183;-86
2021/09/11 10:54:41;;;;;;;2.47;2.27;;;22.90;99.90;;;;;;4998758;28;20203;-86
2021/09/11 10:57:18;;;;;;;2.40;2.17;;;22.90;99.90;;;;;;5000871;28;20179;-86
2021/09/11 10:59:48;;;;;;;3.13;2.60;;;22.90;99.90;;;;;;5001538;28;20171;-85
2021/09/11 11:02:36;;;;;;;2.83;2.50;;;23.00;99.90;;;;;;5000204;28;20182;-85
2021/09/11 11:05:10;;;;;;;2.60;2.40;;;23.20;99.90;;;;;;5002042;28;20196;-85
2021/09/11 11:07:44;;;;;;;2.60;2.40;;;23.00;99.90;;;;;;4999744;28;20686;-86
2021/09/11 11:10:12;;;;;;;2.90;2.70;;;23.00;99.90;;;;;;5004777;28;20171;-85
2021/09/11 11:12:41;;;;;;;2.63;2.27;;;23.10;99.90;;;;;;5005746;28;20232;-85
2021/09/11 11:15:13;;;;;;;2.10;1.90;;;23.10;99.90;;;;;;5003692;28;20198;-86
2021/09/11 11:17:43;;;;;;;2.73;2.23;;;23.10;99.90;;;;;;5005277;28;20202;-85
2021/09/11 11:20:10;;;;;;;2.80;2.60;;;23.10;99.90;;;;;;5005482;28;20635;-86
2021/09/11 11:22:38;;;;;;;2.27;2.17;;;23.20;99.90;;;;;;5008031;28;20175;-86
2021/09/11 11:25:13;;;;;;;2.70;2.20;;;23.10;99.90;;;;;;5007830;28;20214;-85
2021/09/11 11:27:39;;;;;;;3.23;2.67;;;23.00;99.90;;;;;;5006436;28;20205;-86
2021/09/11 11:30:07;;;;;;;2.77;2.17;;;23.00;99.90;;;;;;5006548;28;20176;-85
2021/09/11 11:32:35;;;;;;;2.67;2.47;;;23.00;99.90;;;;;;5006046;28;20207;-86
2021/09/11 11:35:03;;;;;;;4.90;2.87;;;23.10;99.90;;;;;;5080157;23;20232;-87
2021/09/11 11:37:31;;;;;;;2.50;2.30;;;23.20;99.90;;;;;;5082473;28;20651;-85
2021/09/11 11:40:06;;;;;;;2.77;2.20;;;23.20;99.90;;;;;;5067275;28;20209;-86
2021/09/11 11:42:33;;;;;;;1.83;1.73;;;23.40;99.90;;;;;;5080667;28;20168;-86
2021/09/11 11:45:01;;;;;;;3.43;2.10;;;23.70;99.90;;;;;;5060628;28;20672;-85
2021/09/11 11:47:50;;;;;;;1.80;1.70;;;23.70;99.90;;;;;;5055629;28;20201;-84
2021/09/11 11:50:27;;;;;;;3.30;2.03;;;23.70;99.90;;;;;;5049593;28;20181;-87
2021/09/11 11:53:06;;;;;;;2.30;2.10;;;23.60;99.90;;;;;;5051339;28;20178;-87
2021/09/11 11:55:34;;;;;;;3.47;2.43;;;23.60;99.90;;;;;;5058802;28;20277;-84
2021/09/11 11:58:19;;;;;;;2.70;2.30;;;23.60;99.90;;;;;;5062630;28;20642;-86
2021/09/11 12:00:48;;;;;;;2.07;1.97;;;23.60;99.90;;;;;;5054553;28;20170;-87
2021/09/11 12:03:37;;;;;;;2.77;2.53;;;23.50;99.90;;;;;;5054623;28;20245;-85
2021/09/11 12:06:05;;;;;;;2.40;2.30;;;23.40;99.90;;;;;;5047571;28;20201;-84
2021/09/11 12:08:36;;;;;;;3.17;2.60;;;23.30;99.90;;;;;;5050563;28;20233;-87
2021/09/11 12:11:04;;;;;;;3.60;2.70;;;23.30;99.90;;;;;;5059271;28;20241;-86
2021/09/11 12:13:30;;;;;;;3.30;2.60;;;23.30;99.90;;;;;;5052995;28;20724;-86
2021/09/11 12:15:59;;;;;;;3.20;2.40;;;23.50;99.90;;;;;;5048754;28;20190;-85
2021/09/11 12:18:33;;;;;;;2.60;2.40;;;23.60;99.90;;;;;;5050385;28;20179;-87
2021/09/11 12:21:10;;;;;;;2.53;2.33;;;23.80;99.90;;;;;;5040148;28;20174;-86
2021/09/11 12:23:44;;;;;;;2.63;2.43;;;23.80;99.90;;;;;;5054317;28;20213;-87
2021/09/11 12:26:11;;;;;;;2.80;2.60;;;23.70;99.90;;;;;;5048599;28;20177;-85
2021/09/11 12:28:45;;;;;;;2.20;1.73;;;23.80;99.90;;;;;;5049833;28;20182;-86
2021/09/11 12:31:14;;;;;;;3.93;2.20;;;23.80;99.90;;;;;;5035149;28;20175;-86
2021/09/11 12:34:04;;;;;;;2.57;2.37;;;24.00;99.90;;;;;;5060570;28;20211;-86
2021/09/11 12:36:41;;;;;;;2.23;2.03;;;23.90;99.90;;;;;;5036741;28;20194;-85
2021/09/11 12:39:23;;;;;;;2.30;2.10;;;24.00;99.90;;;;;;5063682;28;20168;-85